Time;durP1;ratioP1;P1;durP2;ratioP2;P2;SDS_P1;SDS_P2;PMS_P1;PMS_P2;Temp;Humidity;BMP_temperature;BMP_pressure;BME280_temperature;BME280_humidity;BME280_pressure;Samples;Min_cycle;Max_cycle;Signal;HPM_P1;HPM_P2
2022/04/25 00:02:10;;;;;;;;;15.40;15.40;;;;;;;;5226569;28;8781;-72
2022/04/25 00:04:41;;;;;;;;;2.00;2.00;;;;;;;;5208911;28;8782;-73
2022/04/25 00:07:13;;;;;;;;;6.60;6.60;;;;;;;;5208533;28;9337;-71
2022/04/25 00:09:44;;;;;;;;;17.20;17.20;;;;;;;;5225257;28;8786;-71
2022/04/25 00:12:15;;;;;;;;;10.20;8.80;;;;;;;;5258778;28;8774;-71
2022/04/25 00:14:46;;;;;;;;;9.40;9.40;;;;;;;;5226245;28;8887;-71
2022/04/25 00:17:18;;;;;;;;;21.00;21.00;;;;;;;;5208421;28;8778;-71
2022/04/25 00:19:49;;;;;;;;;18.60;18.60;;;;;;;;5208126;28;8789;-71
2022/04/25 00:22:20;;;;;;;;;42.60;39.00;;;;;;;;5224508;28;8802;-72
2022/04/25 00:24:51;;;;;;;;;88.50;73.50;;;;;;;;5224643;28;8837;-72
2022/04/25 00:27:22;;;;;;;;;77.75;64.00;;;;;;;;5224626;28;8840;-71
2022/04/25 00:30:12;;;;;;;;;75.20;61.00;;;;;;;;5224706;28;11529;-71
2022/04/25 00:32:42;;;;;;;;;40.60;37.80;;;;;;;;5224707;28;8951;-72
2022/04/25 00:35:14;;;;;;;;;35.80;35.80;;;;;;;;5208053;28;8986;-73
2022/04/25 00:37:44;;;;;;;;;21.60;21.60;;;;;;;;5208692;28;8815;-73
2022/04/25 00:40:34;;;;;;;;;66.40;55.00;;;;;;;;5225456;28;8794;-73
2022/04/25 00:43:04;;;;;;;;;76.50;62.75;;;;;;;;5224014;28;8883;-73
2022/04/25 00:45:36;;;;;;;;;168.25;132.50;;;;;;;;5224269;28;8814;-73
2022/04/25 00:48:07;;;;;;;;;57.00;48.00;;;;;;;;5191386;28;11582;-73
2022/04/25 00:50:39;;;;;;;;;22.20;22.20;;;;;;;;5207789;28;8813;-73
2022/04/25 00:53:10;;;;;;;;;38.40;36.00;;;;;;;;5224613;28;8812;-73
2022/04/25 00:55:41;;;;;;;;;20.00;19.20;;;;;;;;5225590;28;8814;-72
2022/04/25 00:58:13;;;;;;;;;20.40;20.40;;;;;;;;5223793;28;8837;-72
2022/04/25 01:00:46;;;;;;;;;23.60;23.60;;;;;;;;5208375;28;8793;-72
2022/04/25 01:03:17;;;;;;;;;15.00;15.00;;;;;;;;5224296;28;8946;-72
2022/04/25 01:05:48;;;;;;;;;13.00;13.00;;;;;;;;5224125;28;8932;-72
2022/04/25 01:08:19;;;;;;;;;20.00;20.00;;;;;;;;5224403;28;9461;-72
2022/04/25 01:10:50;;;;;;;;;14.00;14.00;;;;;;;;5208059;28;8858;-72
2022/04/25 01:13:22;;;;;;;;;12.00;12.00;;;;;;;;5241093;28;8789;-72
2022/04/25 01:15:52;;;;;;;;;6.00;6.00;;;;;;;;5207655;28;9539;-71
2022/04/25 01:18:23;;;;;;;;;7.00;7.00;;;;;;;;5224357;28;8802;-71
2022/04/25 01:20:56;;;;;;;;;8.00;8.00;;;;;;;;5224897;28;8910;-71
2022/04/25 01:29:24;;;;;;;;;12.40;12.40;;;;;;;;5207319;28;8853;-72
2022/04/25 01:31:55;;;;;;;;;22.00;22.00;;;;;;;;5224546;28;8857;-71
2022/04/25 01:34:44;;;;;;;;;33.80;33.20;;;;;;;;5224206;28;9479;-71
2022/04/25 01:37:19;;;;;;;;;49.60;43.80;;;;;;;;5223764;28;8805;-72
2022/04/25 01:39:51;;;;;;;;;86.50;68.00;;;;;;;;5255696;28;8802;-71
2022/04/25 01:42:23;;;;;;;;;57.00;49.20;;;;;;;;5207477;28;8802;-72
2022/04/25 01:44:54;;;;;;;;;30.20;28.80;;;;;;;;5190969;28;8801;-72
2022/04/25 01:47:25;;;;;;;;;30.50;30.50;;;;;;;;5228287;28;8786;-71
2022/04/25 01:50:15;;;;;;;;;42.00;39.40;;;;;;;;5228908;28;8804;-73
2022/04/25 01:52:46;;;;;;;;;75.00;60.75;;;;;;;;5227936;28;8781;-73
2022/04/25 01:55:17;;;;;;;;;61.80;53.00;;;;;;;;5227020;28;11691;-73
2022/04/25 01:57:48;;;;;;;;;57.60;49.60;;;;;;;;5194569;28;8793;-72
2022/04/25 02:00:19;;;;;;;;;20.50;20.50;;;;;;;;5227072;28;8786;-72
2022/04/25 02:02:50;;;;;;;;;50.00;42.25;;;;;;;;5227535;28;10427;-72
2022/04/25 02:05:21;;;;;;;;;21.00;21.00;;;;;;;;5211105;28;8795;-72
2022/04/25 02:07:51;;;;;;;;;11.00;11.00;;;;;;;;5210904;28;11434;-71
2022/04/25 02:10:22;;;;;;;;;8.00;8.00;;;;;;;;5227837;28;8859;-71
2022/04/25 02:12:53;;;;;;;;;10.00;10.00;;;;;;;;5227516;28;8797;-72
2022/04/25 02:15:42;;;;;;;;;6.20;6.20;;;;;;;;5228317;28;8956;-75
2022/04/25 02:18:13;;;;;;;;;8.20;8.20;;;;;;;;5194344;28;8790;-75
2022/04/25 02:20:44;;;;;;;;;8.00;8.00;;;;;;;;5227401;28;8853;-74
2022/04/25 02:23:16;;;;;;;;;6.00;6.00;;;;;;;;5210743;28;8797;-75
2022/04/25 02:25:47;;;;;;;;;5.60;5.60;;;;;;;;5226123;28;11523;-72
2022/04/25 02:28:18;;;;;;;;;4.00;4.00;;;;;;;;5210517;28;8770;-73
2022/04/25 02:30:52;;;;;;;;;7.50;7.50;;;;;;;;5227413;28;11517;-73
2022/04/25 02:33:24;;;;;;;;;6.00;6.00;;;;;;;;5206277;28;11470;-76
2022/04/25 02:35:54;;;;;;;;;6.50;5.75;;;;;;;;5212901;28;9623;-74
2022/04/25 02:38:26;;;;;;;;;7.00;7.00;;;;;;;;5206085;28;10730;-75
2022/04/25 02:41:08;;;;;;;;;2.80;2.80;;;;;;;;5176523;28;8821;-74
2022/04/25 02:43:40;;;;;;;;;6.00;6.00;;;;;;;;5190115;28;8914;-73
2022/04/25 02:46:14;;;;;;;;;6.00;5.60;;;;;;;;5214084;28;8830;-75
2022/04/25 02:48:46;;;;;;;;;6.00;6.00;;;;;;;;5249160;28;8937;-72
2022/04/25 02:51:17;;;;;;;;;4.00;4.00;;;;;;;;5230727;28;9497;-72
2022/04/25 02:54:07;;;;;;;;;3.00;3.00;;;;;;;;5206344;28;8826;-72
2022/04/25 02:56:38;;;;;;;;;3.00;3.00;;;;;;;;5191311;28;8836;-72
2022/04/25 02:59:09;;;;;;;;;5.40;5.40;;;;;;;;5208825;28;8823;-71
2022/04/25 03:01:40;;;;;;;;;5.75;5.75;;;;;;;;5228408;28;8792;-73
2022/04/25 03:04:30;;;;;;;;;95.00;73.60;;;;;;;;5212582;28;11397;-72
2022/04/25 03:07:02;;;;;;;;;4.20;4.20;;;;;;;;5226753;28;9611;-72
2022/04/25 03:09:33;;;;;;;;;2.80;2.80;;;;;;;;5226944;28;9484;-72
2022/04/25 03:12:04;;;;;;;;;2.00;2.00;;;;;;;;5225920;28;8758;-72
2022/04/25 03:14:35;;;;;;;;;1.00;1.00;;;;;;;;5227404;28;8790;-72
2022/04/25 03:17:06;;;;;;;;;3.00;3.00;;;;;;;;5227082;28;8869;-72
2022/04/25 03:19:37;;;;;;;;;2.20;2.20;;;;;;;;5209015;28;11481;-72
2022/04/25 03:22:09;;;;;;;;;2.20;2.20;;;;;;;;5227780;28;8935;-73
2022/04/25 03:24:58;;;;;;;;;2.20;2.20;;;;;;;;5226206;28;8905;-71
2022/04/25 03:27:29;;;;;;;;;1.75;1.75;;;;;;;;5225978;28;8766;-70
2022/04/25 03:30:00;;;;;;;;;2.00;2.00;;;;;;;;5208713;28;8793;-72
2022/04/25 03:32:32;;;;;;;;;2.75;2.75;;;;;;;;5225291;28;8781;-72
2022/04/25 03:35:04;;;;;;;;;4.00;3.80;;;;;;;;5205449;28;10717;-71
2022/04/25 03:37:36;;;;;;;;;3.40;3.40;;;;;;;;5225755;28;9555;-72
2022/04/25 03:40:09;;;;;;;;;2.20;2.20;;;;;;;;5225487;28;8798;-71
2022/04/25 03:42:46;;;;;;;;;2.40;2.40;;;;;;;;5225350;28;9639;-72
2022/04/25 03:45:18;;;;;;;;;1.80;1.80;;;;;;;;5209303;28;8785;-72
2022/04/25 03:47:49;;;;;;;;;2.60;2.60;;;;;;;;5244371;28;8794;-72
2022/04/25 03:50:20;;;;;;;;;2.00;2.00;;;;;;;;5218389;28;8928;-72
2022/04/25 03:52:51;;;;;;;;;2.20;2.20;;;;;;;;5208512;28;8770;-72
2022/04/25 03:58:12;;;;;;;;;2.00;2.00;;;;;;;;5225260;28;10272;-72
2022/04/25 04:00:43;;;;;;;;;2.00;2.00;;;;;;;;5226470;28;8806;-73
2022/04/25 04:03:18;;;;;;;;;7.00;7.00;;;;;;;;5208503;28;8790;-73
2022/04/25 04:05:50;;;;;;;;;2.80;2.80;;;;;;;;5225039;28;9035;-74
2022/04/25 04:08:21;;;;;;;;;2.80;2.80;;;;;;;;5224889;28;8812;-74
2022/04/25 04:10:52;;;;;;;;;2.20;2.20;;;;;;;;5224832;28;8810;-72
2022/04/25 04:13:24;;;;;;;;;3.50;3.50;;;;;;;;5202080;28;8832;-73
2022/04/25 04:15:56;;;;;;;;;2.40;2.40;;;;;;;;5224067;28;8822;-73
2022/04/25 04:18:27;;;;;;;;;3.00;3.00;;;;;;;;5224851;28;8774;-73
2022/04/25 04:20:58;;;;;;;;;1.60;1.60;;;;;;;;5224882;28;8813;-73
2022/04/25 04:23:29;;;;;;;;;3.60;3.60;;;;;;;;5208189;28;8778;-75
2022/04/25 04:26:00;;;;;;;;;6.60;6.60;;;;;;;;5208413;28;8802;-73
2022/04/25 04:28:49;;;;;;;;;8.00;8.00;;;;;;;;5225432;28;8789;-75
2022/04/25 04:31:20;;;;;;;;;4.00;4.00;;;;;;;;5224632;28;8794;-73
2022/04/25 04:33:51;;;;;;;;;5.50;5.50;;;;;;;;5207349;28;8787;-73
2022/04/25 04:36:24;;;;;;;;;8.40;8.40;;;;;;;;5203547;28;11093;-72
2022/04/25 04:38:56;;;;;;;;;5.60;5.60;;;;;;;;5203603;28;8800;-68
2022/04/25 04:41:29;;;;;;;;;1.00;1.00;;;;;;;;5200883;28;8809;-69
2022/04/25 04:44:03;;;;;;;;;2.00;2.00;;;;;;;;5205943;28;8800;-70
2022/04/25 04:46:54;;;;;;;;;2.60;2.60;;;;;;;;5225718;28;8819;-70
2022/04/25 04:49:27;;;;;;;;;1.80;1.80;;;;;;;;5212043;28;8806;-70
2022/04/25 04:52:00;;;;;;;;;3.20;3.20;;;;;;;;5246707;28;8901;-71
2022/04/25 04:54:31;;;;;;;;;2.00;2.00;;;;;;;;5228580;28;8929;-69
2022/04/25 04:57:01;;;;;;;;;2.00;2.00;;;;;;;;5228590;28;8900;-70
2022/04/25 04:59:32;;;;;;;;;3.80;3.80;;;;;;;;5207460;28;8785;-70
2022/04/25 05:02:06;;;;;;;;;6.40;5.80;;;;;;;;5225265;28;9554;-69
2022/04/25 05:04:38;;;;;;;;;2.00;2.00;;;;;;;;5207742;28;9508;-69
2022/04/25 05:07:10;;;;;;;;;2.00;2.00;;;;;;;;5225978;28;8782;-70
2022/04/25 05:09:40;;;;;;;;;2.00;2.00;;;;;;;;5210434;28;8863;-68
2022/04/25 05:12:30;;;;;;;;;4.00;4.00;;;;;;;;5233089;28;8795;-70
2022/04/25 05:15:03;;;;;;;;;2.80;2.80;;;;;;;;5211216;28;8832;-71
2022/04/25 05:17:34;;;;;;;;;0.00;0.00;;;;;;;;5194200;28;8799;-70
2022/04/25 05:20:05;;;;;;;;;0.00;0.00;;;;;;;;5225882;28;9505;-68
2022/04/25 05:22:44;;;;;;;;;1.00;1.00;;;;;;;;5229594;28;11545;-66
2022/04/25 05:25:17;;;;;;;;;1.00;1.00;;;;;;;;5213784;28;8817;-71
2022/04/25 05:27:49;;;;;;;;;1.00;1.00;;;;;;;;5228397;28;8885;-72
2022/04/25 05:30:21;;;;;;;;;1.00;1.00;;;;;;;;5182720;28;9403;-72
2022/04/25 05:32:54;;;;;;;;;4.20;4.20;;;;;;;;5230253;28;8794;-72
2022/04/25 05:35:26;;;;;;;;;12.20;12.20;;;;;;;;5225760;28;8810;-72
2022/04/25 05:37:57;;;;;;;;;2.60;2.60;;;;;;;;5225751;28;8878;-72
2022/04/25 05:40:49;;;;;;;;;3.00;3.00;;;;;;;;5225209;28;8913;-68
2022/04/25 05:43:20;;;;;;;;;3.20;3.20;;;;;;;;5216214;28;8804;-71
2022/04/25 05:45:53;;;;;;;;;2.60;2.60;;;;;;;;5241146;28;8801;-66
2022/04/25 05:54:23;;;;;;;;;2.00;2.00;;;;;;;;5185997;28;8885;-71
2022/04/25 05:56:54;;;;;;;;;2.60;2.60;;;;;;;;5202550;28;8842;-71
2022/04/25 05:59:25;;;;;;;;;1.00;1.00;;;;;;;;5228035;28;8790;-71
2022/04/25 06:01:56;;;;;;;;;1.60;1.60;;;;;;;;5252967;28;8802;-71
2022/04/25 06:04:27;;;;;;;;;1.00;1.00;;;;;;;;5227238;28;8928;-71
2022/04/25 06:06:59;;;;;;;;;1.00;1.00;;;;;;;;5228020;28;9942;-71
2022/04/25 06:09:30;;;;;;;;;1.00;1.00;;;;;;;;5244103;28;11414;-71
2022/04/25 06:12:02;;;;;;;;;1.25;1.25;;;;;;;;5227710;28;8770;-71
2022/04/25 06:14:33;;;;;;;;;8.00;8.00;;;;;;;;5228810;28;8793;-71
2022/04/25 06:17:22;;;;;;;;;1.00;1.00;;;;;;;;5229156;28;8809;-70
2022/04/25 06:19:53;;;;;;;;;1.75;1.75;;;;;;;;5227828;28;8794;-70
2022/04/25 06:22:24;;;;;;;;;1.50;1.50;;;;;;;;5229142;28;11451;-70
2022/04/25 06:24:55;;;;;;;;;1.00;1.00;;;;;;;;5227288;28;9697;-70
2022/04/25 06:27:25;;;;;;;;;2.00;2.00;;;;;;;;5227060;28;9601;-70
2022/04/25 06:30:15;;;;;;;;;1.40;1.40;;;;;;;;5213414;28;8774;-71
2022/04/25 06:32:45;;;;;;;;;1.00;1.00;;;;;;;;5243717;28;8794;-71
2022/04/25 06:35:16;;;;;;;;;1.00;1.00;;;;;;;;5228317;28;8852;-71
2022/04/25 06:37:47;;;;;;;;;1.00;1.00;;;;;;;;5226919;28;8943;-70
2022/04/25 06:40:18;;;;;;;;;1.50;1.00;;;;;;;;5227996;28;11213;-70
2022/04/25 06:42:51;;;;;;;;;1.25;1.25;;;;;;;;5227006;28;8790;-70
2022/04/25 06:45:22;;;;;;;;;0.00;0.00;;;;;;;;5228116;28;8810;-70
2022/04/25 06:48:11;;;;;;;;;2.00;2.00;;;;;;;;5227391;28;8770;-70
2022/04/25 06:50:42;;;;;;;;;1.00;1.00;;;;;;;;5227983;28;9512;-70
2022/04/25 06:53:31;;;;;;;;;1.00;1.00;;;;;;;;5226987;28;8770;-70
2022/04/25 06:56:02;;;;;;;;;2.67;2.67;;;;;;;;5226766;28;9559;-70
2022/04/25 06:58:33;;;;;;;;;1.00;1.00;;;;;;;;5226588;28;8782;-70
2022/04/25 07:01:22;;;;;;;;;1.00;1.00;;;;;;;;5226306;28;8801;-70
2022/04/25 07:03:53;;;;;;;;;0.67;0.67;;;;;;;;5227688;28;8848;-70
2022/04/25 07:06:25;;;;;;;;;1.67;1.67;;;;;;;;5226392;28;8813;-70
2022/04/25 07:08:55;;;;;;;;;2.80;2.80;;;;;;;;5209482;28;10035;-70
2022/04/25 07:11:26;;;;;;;;;2.00;2.00;;;;;;;;5227403;28;8802;-70
2022/04/25 07:14:17;;;;;;;;;3.00;3.00;;;;;;;;5226696;28;11470;-70
2022/04/25 07:16:48;;;;;;;;;2.40;2.40;;;;;;;;5226386;28;8813;-71
2022/04/25 07:19:20;;;;;;;;;2.00;2.00;;;;;;;;5226231;28;8774;-71
2022/04/25 07:30:19;;;;;;;;;1.00;1.00;;;;;;;;5228110;28;8762;-71
2022/04/25 07:32:50;;;;;;;;;1.67;1.67;;;;;;;;5227381;28;8792;-71
2022/04/25 07:35:21;;;;;;;;;3.00;2.00;;;;;;;;5227257;28;11472;-71
2022/04/25 07:38:10;;;;;;;;;1.25;1.25;;;;;;;;5226118;28;8782;-71
2022/04/25 07:40:41;;;;;;;;;0.00;0.00;;;;;;;;5209460;28;8798;-72
2022/04/25 07:43:12;;;;;;;;;2.00;2.00;;;;;;;;5225455;28;8796;-71
2022/04/25 07:46:02;;;;;;;;;1.25;1.25;;;;;;;;5226493;28;9629;-71
2022/04/25 07:48:34;;;;;;;;;2.75;2.75;;;;;;;;5226789;28;8781;-71
2022/04/25 07:51:05;;;;;;;;;1.00;1.00;;;;;;;;5225487;28;8786;-71
2022/04/25 07:53:54;;;;;;;;;3.00;3.00;;;;;;;;5225791;28;9726;-71
2022/04/25 07:56:26;;;;;;;;;5.25;5.25;;;;;;;;5226478;28;8922;-70
2022/04/25 07:58:58;;;;;;;;;11.25;11.25;;;;;;;;5208678;28;8785;-71
2022/04/25 08:01:48;;;;;;;;;8.00;8.00;;;;;;;;5226671;28;8774;-71
2022/04/25 08:04:18;;;;;;;;;13.00;13.00;;;;;;;;5226866;28;8886;-70
2022/04/25 08:06:49;;;;;;;;;23.60;22.20;;;;;;;;5226300;28;8789;-71
2022/04/25 08:09:20;;;;;;;;;11.33;9.67;;;;;;;;5225220;28;9492;-71
2022/04/25 08:17:56;;;;;;;;;7.00;7.00;;;;;;;;5226410;28;9500;-71
2022/04/25 08:20:21;;;;;;;;;9.00;9.00;;;;;;;;5226326;28;8846;-71
2022/04/25 08:22:53;;;;;;;;;6.00;6.00;;;;;;;;5226481;28;8801;-71
2022/04/25 08:25:30;;;;;;;;;7.75;7.75;;;;;;;;5208053;28;8845;-71
2022/04/25 08:28:01;;;;;;;;;4.00;4.00;;;;;;;;5208438;28;8774;-71
2022/04/25 08:30:32;;;;;;;;;6.00;6.00;;;;;;;;5225071;28;8793;-71
2022/04/25 08:33:04;;;;;;;;;6.75;6.75;;;;;;;;5258055;28;8786;-71
2022/04/25 08:35:35;;;;;;;;;11.00;11.00;;;;;;;;5224718;28;8856;-70
2022/04/25 08:38:06;;;;;;;;;17.75;17.25;;;;;;;;5258187;28;8820;-71
2022/04/25 08:40:38;;;;;;;;;13.50;13.50;;;;;;;;5208010;28;8820;-71
2022/04/25 08:43:12;;;;;;;;;13.50;13.50;;;;;;;;5225977;28;8790;-71
2022/04/25 08:45:45;;;;;;;;;8.75;8.75;;;;;;;;5225726;28;8797;-71
2022/04/25 08:48:17;;;;;;;;;8.00;8.00;;;;;;;;5208035;28;8782;-71
2022/04/25 08:50:50;;;;;;;;;10.50;10.50;;;;;;;;5207751;28;8797;-71
2022/04/25 08:53:22;;;;;;;;;10.00;10.00;;;;;;;;5208061;28;8871;-71
2022/04/25 08:55:56;;;;;;;;;12.00;12.00;;;;;;;;5223318;28;8833;-71
2022/04/25 08:58:28;;;;;;;;;9.50;9.50;;;;;;;;5224320;28;8867;-71
2022/04/25 09:01:00;;;;;;;;;6.75;6.75;;;;;;;;5224531;28;8812;-71
2022/04/25 09:03:31;;;;;;;;;6.75;6.75;;;;;;;;5224163;28;8824;-71
2022/04/25 09:06:03;;;;;;;;;6.00;6.00;;;;;;;;5224885;28;8802;-70
2022/04/25 09:08:34;;;;;;;;;4.00;4.00;;;;;;;;5224281;28;11408;-70
2022/04/25 09:13:55;;;;;;;;;3.25;3.25;;;;;;;;5225288;28;8836;-70
2022/04/25 09:16:25;;;;;;;;;1.00;1.00;;;;;;;;5224475;28;8833;-70
2022/04/25 09:18:57;;;;;;;;;4.00;4.00;;;;;;;;5224388;28;8805;-70
2022/04/25 09:21:29;;;;;;;;;3.00;3.00;;;;;;;;5207516;28;8814;-70
2022/04/25 09:24:00;;;;;;;;;4.75;4.75;;;;;;;;5257283;28;8802;-70
2022/04/25 09:26:31;;;;;;;;;4.00;4.00;;;;;;;;5223752;28;9509;-70
2022/04/25 09:29:01;;;;;;;;;2.00;2.00;;;;;;;;5224304;28;11371;-70
2022/04/25 09:31:51;;;;;;;;;3.00;3.00;;;;;;;;5225452;28;9501;-70
2022/04/25 09:37:11;;;;;;;;;3.00;3.00;;;;;;;;5224337;28;9609;-70
2022/04/25 09:39:43;;;;;;;;;4.33;4.33;;;;;;;;5225543;28;8789;-70
2022/04/25 09:42:14;;;;;;;;;4.50;4.50;;;;;;;;5257535;28;11441;-70
2022/04/25 09:44:56;;;;;;;;;16.25;16.25;;;;;;;;5225167;28;9532;-72
2022/04/25 09:47:30;;;;;;;;;8.25;8.25;;;;;;;;5257601;28;8801;-70
2022/04/25 09:50:05;;;;;;;;;4.00;4.00;;;;;;;;5207376;28;8782;-70
2022/04/25 09:52:51;;;;;;;;;6.00;5.00;;;;;;;;5207334;28;8801;-70
2022/04/25 09:55:23;;;;;;;;;8.00;8.00;;;;;;;;5224855;28;9533;-70
2022/04/25 09:57:54;;;;;;;;;5.50;5.50;;;;;;;;5257308;28;8888;-70
2022/04/25 10:00:37;;;;;;;;;4.50;4.50;;;;;;;;5224958;28;8774;-70
2022/04/25 10:03:08;;;;;;;;;5.00;5.00;;;;;;;;5207377;28;8786;-70
2022/04/25 10:05:41;;;;;;;;;7.00;7.00;;;;;;;;5224010;28;9536;-71
2022/04/25 10:08:13;;;;;;;;;6.25;6.25;;;;;;;;5226278;28;8770;-70
2022/04/25 10:10:47;;;;;;;;;7.00;7.00;;;;;;;;5208475;28;8812;-70
2022/04/25 10:13:20;;;;;;;;;4.00;4.00;;;;;;;;5203853;28;8817;-71
2022/04/25 10:15:51;;;;;;;;;3.25;3.25;;;;;;;;5231891;28;8828;-70
2022/04/25 10:18:47;;;;;;;;;3.00;3.00;;;;;;;;5207372;28;8838;-72
2022/04/25 10:21:38;;;;;;;;;1.00;1.00;;;;;;;;5222530;28;8812;-70
2022/04/25 10:24:09;;;;;;;;;4.00;4.00;;;;;;;;5226689;28;8826;-71
2022/04/25 10:26:40;;;;;;;;;1.75;1.75;;;;;;;;5227094;28;9613;-71
2022/04/25 10:29:13;;;;;;;;;2.00;2.00;;;;;;;;5227220;28;8782;-72
2022/04/25 10:31:46;;;;;;;;;3.00;3.00;;;;;;;;5211110;28;8806;-70
2022/04/25 10:34:54;;;;;;;;;3.00;3.00;;;;;;;;5230279;28;8879;-72
2022/04/25 10:37:40;;;;;;;;;5.00;5.00;;;;;;;;5197313;28;8810;-73
2022/04/25 10:44:10;;;;;;;;;36.20;33.40;;;;;;;;5208449;28;8815;-75
2022/04/25 10:46:07;;;;;;;;;3.50;3.50;;;;;;;;5231199;28;8875;-72
2022/04/25 10:48:58;;;;;;;;;6.00;6.00;;;;;;;;5228139;28;8882;-73
2022/04/25 10:51:37;;;;;;;;;8.75;8.00;;;;;;;;5225931;28;8840;-73
2022/04/25 10:54:28;;;;;;;;;8.75;8.75;;;;;;;;5227001;28;8805;-70
2022/04/25 10:57:05;;;;;;;;;10.50;10.50;;;;;;;;5209857;28;8848;-70
2022/04/25 10:59:39;;;;;;;;;9.00;9.00;;;;;;;;5226369;28;8808;-70
2022/04/25 11:02:23;;;;;;;;;3.50;3.50;;;;;;;;5209664;28;8954;-70
2022/04/25 11:05:28;;;;;;;;;6.00;5.00;;;;;;;;5226196;28;8820;-70
2022/04/25 11:08:19;;;;;;;;;2.75;2.75;;;;;;;;5216283;28;8814;-72
2022/04/25 11:10:56;;;;;;;;;6.75;6.75;;;;;;;;5218840;28;8794;-70
2022/04/25 11:13:56;;;;;;;;;9.25;9.25;;;;;;;;5227013;28;8810;-71
2022/04/25 11:16:28;;;;;;;;;9.75;9.75;;;;;;;;5225921;28;8840;-71
2022/04/25 11:19:10;;;;;;;;;11.75;11.00;;;;;;;;5225890;28;8884;-71
2022/04/25 11:21:43;;;;;;;;;11.50;11.50;;;;;;;;5226292;28;9705;-69
2022/04/25 11:24:38;;;;;;;;;6.00;6.00;;;;;;;;5226871;28;8873;-71
2022/04/25 11:27:47;;;;;;;;;2.75;2.75;;;;;;;;5226468;28;9488;-71
2022/04/25 11:30:20;;;;;;;;;2.25;2.25;;;;;;;;5226974;28;8778;-70
2022/04/25 11:32:52;;;;;;;;;1.00;1.00;;;;;;;;5208994;28;8773;-71
2022/04/25 11:35:23;;;;;;;;;1.00;1.00;;;;;;;;5209005;28;9065;-71
2022/04/25 11:37:57;;;;;;;;;2.50;2.50;;;;;;;;5227093;28;8900;-71
2022/04/25 11:40:28;;;;;;;;;3.00;3.00;;;;;;;;5209139;28;8786;-72
2022/04/25 11:43:22;;;;;;;;;4.25;4.00;;;;;;;;5226049;28;9480;-71
2022/04/25 11:45:53;;;;;;;;;2.75;2.75;;;;;;;;5226206;28;9636;-71
2022/04/25 11:48:24;;;;;;;;;3.00;3.00;;;;;;;;5226604;28;8778;-71
2022/04/25 11:50:55;;;;;;;;;11.33;10.67;;;;;;;;5225725;28;8818;-70
2022/04/25 11:53:30;;;;;;;;;7.33;6.33;;;;;;;;5226707;28;11484;-70
2022/04/25 11:56:14;;;;;;;;;5.50;5.50;;;;;;;;5226106;28;12184;-70
2022/04/25 11:58:45;;;;;;;;;14.00;13.50;;;;;;;;5225677;28;9548;-71
2022/04/25 12:01:38;;;;;;;;;32.50;31.25;;;;;;;;5225288;28;8770;-71
2022/04/25 12:04:15;;;;;;;;;10.00;10.00;;;;;;;;5226072;28;9645;-71
2022/04/25 12:06:57;;;;;;;;;6.00;6.00;;;;;;;;5225975;28;9655;-70
2022/04/25 12:18:28;;;;;;;;;4.00;4.00;;;;;;;;5226282;28;8790;-71
2022/04/25 12:21:04;;;;;;;;;10.00;10.00;;;;;;;;5208345;28;8806;-71
2022/04/25 12:23:36;;;;;;;;;6.25;6.25;;;;;;;;5224524;28;8829;-71
2022/04/25 12:26:31;;;;;;;;;6.75;6.00;;;;;;;;5224191;28;9609;-70
2022/04/25 12:29:24;;;;;;;;;12.50;12.50;;;;;;;;5204143;28;8908;-70
2022/04/25 12:31:55;;;;;;;;;9.67;9.00;;;;;;;;5224215;28;8834;-70
2022/04/25 12:34:31;;;;;;;;;8.00;8.00;;;;;;;;5224636;28;8824;-70
2022/04/25 12:37:02;;;;;;;;;6.50;6.50;;;;;;;;5224998;28;8825;-71
2022/04/25 12:39:33;;;;;;;;;2.33;2.33;;;;;;;;5224807;28;8786;-71
2022/04/25 12:42:04;;;;;;;;;26.00;25.60;;;;;;;;5225591;28;11589;-71
2022/04/25 12:44:35;;;;;;;;;12.25;12.25;;;;;;;;5226090;28;8837;-69
2022/04/25 12:47:08;;;;;;;;;12.00;12.00;;;;;;;;5225343;28;8874;-70
2022/04/25 12:49:44;;;;;;;;;6.00;6.00;;;;;;;;5225363;28;8794;-71
2022/04/25 12:52:16;;;;;;;;;9.50;9.00;;;;;;;;5187229;28;8962;-72
2022/04/25 12:54:48;;;;;;;;;73.20;59.60;;;;;;;;5203560;28;9784;-71
2022/04/25 12:57:24;;;;;;;;;11.60;11.20;;;;;;;;5205463;28;9055;-70
2022/04/25 13:00:17;;;;;;;;;8.75;8.75;;;;;;;;5220864;28;8814;-71
2022/04/25 13:02:49;;;;;;;;;4.50;4.50;;;;;;;;5186766;28;8816;-71
2022/04/25 13:05:44;;;;;;;;;2.75;2.75;;;;;;;;5203824;28;8808;-71
2022/04/25 13:08:14;;;;;;;;;8.00;8.00;;;;;;;;5219910;28;8850;-72
2022/04/25 13:10:45;;;;;;;;;7.00;7.00;;;;;;;;5205316;28;8859;-71
2022/04/25 13:13:16;;;;;;;;;5.50;5.50;;;;;;;;5236830;28;8800;-72
2022/04/25 13:15:51;;;;;;;;;54.00;45.60;;;;;;;;5204576;28;8807;-71
2022/04/25 13:18:22;;;;;;;;;15.80;15.20;;;;;;;;5204821;28;8812;-72
2022/04/25 13:20:53;;;;;;;;;9.50;9.50;;;;;;;;5212932;28;9560;-71
2022/04/25 13:23:24;;;;;;;;;10.67;10.00;;;;;;;;5219668;28;8792;-72
2022/04/25 13:25:55;;;;;;;;;9.00;9.00;;;;;;;;5222485;28;9886;-73
2022/04/25 13:28:29;;;;;;;;;5.25;5.00;;;;;;;;5222810;28;8794;-72
2022/04/25 13:31:00;;;;;;;;;4.50;4.50;;;;;;;;5223855;28;8767;-71
2022/04/25 13:33:31;;;;;;;;;6.00;6.00;;;;;;;;5222630;28;8774;-72
2022/04/25 13:36:05;;;;;;;;;4.00;4.00;;;;;;;;5224597;28;8825;-70
2022/04/25 13:38:36;;;;;;;;;6.25;5.75;;;;;;;;5223302;28;8805;-70
2022/04/25 13:41:06;;;;;;;;;5.00;5.00;;;;;;;;5203012;28;9542;-71
2022/04/25 13:43:37;;;;;;;;;4.25;4.25;;;;;;;;5208026;28;8780;-71
2022/04/25 13:46:11;;;;;;;;;3.00;3.00;;;;;;;;5206967;28;8806;-68
2022/04/25 13:49:01;;;;;;;;;38.60;34.40;;;;;;;;5226103;28;9977;-69
2022/04/25 13:51:32;;;;;;;;;10.33;10.33;;;;;;;;5229536;28;8786;-69
2022/04/25 13:54:03;;;;;;;;;5.50;5.00;;;;;;;;5228923;28;8805;-68
2022/04/25 13:56:37;;;;;;;;;4.00;4.00;;;;;;;;5229106;28;8936;-70
2022/04/25 13:59:13;;;;;;;;;4.00;4.00;;;;;;;;5227569;28;8792;-70
2022/04/25 14:01:44;;;;;;;;;4.75;4.75;;;;;;;;5190334;28;8831;-70
2022/04/25 14:04:15;;;;;;;;;3.75;3.75;;;;;;;;5224128;28;8832;-70
2022/04/25 14:07:08;;;;;;;;;6.50;6.50;;;;;;;;5227886;28;8786;-68
2022/04/25 14:09:43;;;;;;;;;6.00;6.00;;;;;;;;5210662;28;8810;-69
2022/04/25 14:12:14;;;;;;;;;8.50;8.50;;;;;;;;5229061;28;8781;-71
2022/04/25 14:14:50;;;;;;;;;7.00;5.00;;;;;;;;5228124;28;8806;-69
2022/04/25 14:17:24;;;;;;;;;4.75;4.75;;;;;;;;5227459;28;8920;-70
2022/04/25 14:19:55;;;;;;;;;7.00;7.00;;;;;;;;5227388;28;8836;-70
2022/04/25 14:22:26;;;;;;;;;6.33;5.67;;;;;;;;5226645;28;8826;-71
2022/04/25 14:25:00;;;;;;;;;11.00;11.00;;;;;;;;5228181;28;8916;-71
2022/04/25 14:27:33;;;;;;;;;17.67;17.00;;;;;;;;5244284;28;8930;-71
2022/04/25 14:30:05;;;;;;;;;53.20;43.60;;;;;;;;5249175;28;10665;-71
2022/04/25 14:32:36;;;;;;;;;20.20;19.60;;;;;;;;5246391;28;8817;-70
2022/04/25 14:35:07;;;;;;;;;22.20;18.60;;;;;;;;5246168;28;8787;-69
2022/04/25 14:37:38;;;;;;;;;13.00;12.60;;;;;;;;5228563;28;8829;-69
2022/04/25 14:40:10;;;;;;;;;7.33;6.33;;;;;;;;5226281;28;8810;-71
2022/04/25 14:42:41;;;;;;;;;18.00;18.00;;;;;;;;5226503;28;8810;-71
2022/04/25 14:45:13;;;;;;;;;5.00;5.00;;;;;;;;5208341;28;8809;-69
2022/04/25 14:47:46;;;;;;;;;4.00;4.00;;;;;;;;5222055;28;8848;-72
2022/04/25 14:55:56;;;;;;;;;24.40;24.40;;;;;;;;5221183;28;8924;-75
2022/04/25 14:58:27;;;;;;;;;7.75;7.75;;;;;;;;5216135;28;8802;-68
2022/04/25 15:01:02;;;;;;;;;4.75;4.50;;;;;;;;5215537;28;8770;-68
2022/04/25 15:03:52;;;;;;;;;5.50;5.50;;;;;;;;5226615;28;8809;-72
2022/04/25 15:06:23;;;;;;;;;10.75;10.75;;;;;;;;5228023;28;9505;-70
2022/04/25 15:08:54;;;;;;;;;6.50;6.50;;;;;;;;5227879;28;8891;-71
2022/04/25 15:11:27;;;;;;;;;11.00;9.00;;;;;;;;5229491;28;8942;-69
2022/04/25 15:13:58;;;;;;;;;25.60;24.40;;;;;;;;5247636;28;10955;-69
2022/04/25 15:16:29;;;;;;;;;14.75;14.25;;;;;;;;5247709;28;9553;-69
2022/04/25 15:19:01;;;;;;;;;20.80;20.80;;;;;;;;5243767;28;8833;-68
2022/04/25 15:21:31;;;;;;;;;8.00;8.00;;;;;;;;5231593;28;9434;-69
2022/04/25 15:24:02;;;;;;;;;9.33;8.67;;;;;;;;5222874;28;8793;-69
2022/04/25 15:26:33;;;;;;;;;7.25;7.25;;;;;;;;5246049;28;8790;-69
2022/04/25 15:29:04;;;;;;;;;6.75;6.75;;;;;;;;5239137;28;8782;-68
2022/04/25 15:31:35;;;;;;;;;4.33;4.33;;;;;;;;5235376;28;8829;-68
2022/04/25 15:34:06;;;;;;;;;6.00;5.25;;;;;;;;5228064;28;11451;-68
2022/04/25 15:36:37;;;;;;;;;4.33;4.33;;;;;;;;5226655;28;8825;-68
2022/04/25 15:39:08;;;;;;;;;6.75;6.75;;;;;;;;5226134;28;11467;-68
2022/04/25 15:41:57;;;;;;;;;4.50;4.50;;;;;;;;5227079;28;8782;-69
2022/04/25 15:44:28;;;;;;;;;4.67;4.67;;;;;;;;5225472;28;8855;-69
2022/04/25 15:47:02;;;;;;;;;3.25;3.25;;;;;;;;5226327;28;9471;-68
2022/04/25 15:49:40;;;;;;;;;2.33;2.33;;;;;;;;5226244;28;8762;-68
2022/04/25 15:52:11;;;;;;;;;9.25;9.00;;;;;;;;5230340;28;11433;-69
2022/04/25 15:57:43;;;;;;;;;6.50;6.50;;;;;;;;5227168;28;8941;-68
2022/04/25 16:00:32;;;;;;;;;34.00;31.60;;;;;;;;5228438;28;8778;-68
2022/04/25 16:03:04;;;;;;;;;15.00;14.60;;;;;;;;5192963;28;9592;-67
2022/04/25 16:05:53;;;;;;;;;6.00;6.00;;;;;;;;5225847;28;8786;-68
2022/04/25 16:08:24;;;;;;;;;5.67;5.67;;;;;;;;5226950;28;9485;-67
2022/04/25 16:10:54;;;;;;;;;5.33;5.33;;;;;;;;5226526;28;8794;-67
2022/04/25 16:13:25;;;;;;;;;7.33;6.67;;;;;;;;5227222;28;9551;-67
2022/04/25 16:15:57;;;;;;;;;10.60;10.60;;;;;;;;5225962;28;8857;-67
2022/04/25 16:18:28;;;;;;;;;6.00;5.00;;;;;;;;5226266;28;8871;-68
2022/04/25 16:20:59;;;;;;;;;5.00;5.00;;;;;;;;5208559;28;8818;-67
2022/04/25 16:23:30;;;;;;;;;28.60;25.00;;;;;;;;5225847;28;8822;-68
2022/04/25 16:26:10;;;;;;;;;7.80;7.80;;;;;;;;5224992;28;8844;-68
2022/04/25 16:28:41;;;;;;;;;4.50;4.50;;;;;;;;5226464;28;8816;-67